Time;durP1;ratioP1;P1;durP2;ratioP2;P2;SDS_P1;SDS_P2;PMS_P1;PMS_P2;Temp;Humidity;BMP_temperature;BMP_pressure;BME280_temperature;BME280_humidity;BME280_pressure;Samples;Min_cycle;Max_cycle;Signal;HPM_P1;HPM_P2
2022/06/19 00:01:16;;;;;;;3.25;0.90;;;23.90;75.60;;;;;;4994967;28;20049;-89
2022/06/19 00:04:51;;;;;;;4.50;0.77;;;23.90;76.70;;;;;;4995085;28;20502;-92
2022/06/19 00:14:39;;;;;;;;;;;24.00;75.50;;;;;;4903808;29;20069;-91
2022/06/19 00:21:47;;;;;;;;;;;;;;;;;;;;;
2022/06/19 00:27:47;;;;;;;;;;;23.90;76.30;;;;;;4917834;29;20039;-92
2022/06/19 00:30:14;;;;;;;3.80;1.13;;;23.90;75.70;;;;;;4916208;29;19919;-89
2022/06/19 00:32:39;;;;;;;5.00;1.10;;;23.90;75.90;;;;;;4927254;28;20028;-90
2022/06/19 00:35:06;;;;;;;4.75;0.75;;;23.80;75.60;;;;;;4994280;28;20029;-89
2022/06/19 00:37:35;;;;;;;2.45;0.85;;;23.80;75.20;;;;;;4998263;28;20618;-90
2022/06/19 00:40:36;;;;;;;3.53;0.70;;;23.90;75.70;;;;;;4998617;28;20026;-88
2022/06/19 00:43:02;;;;;;;2.50;1.00;;;23.80;75.50;;;;;;4966541;28;20045;-90
2022/06/19 00:45:39;;;;;;;5.28;0.68;;;23.80;75.60;;;;;;5015513;28;20038;-90
2022/06/19 00:48:18;;;;;;;3.05;0.73;;;23.80;76.10;;;;;;5014921;28;20029;-90
2022/06/19 00:50:48;;;;;;;3.10;0.90;;;23.80;76.40;;;;;;4993865;28;20044;-90
2022/06/19 00:53:20;;;;;;;3.28;0.95;;;23.80;76.40;;;;;;4985164;28;20034;-89
2022/06/19 00:55:49;;;;;;;2.00;0.60;;;23.80;76.80;;;;;;5013698;28;20024;-91
2022/06/19 00:58:20;;;;;;;4.93;0.98;;;23.70;76.70;;;;;;4990606;28;20688;-91
2022/06/19 01:00:58;;;;;;;2.47;0.63;;;23.70;77.50;;;;;;4995768;28;20037;-90
2022/06/19 01:03:29;;;;;;;2.70;0.90;;;23.60;76.60;;;;;;4992188;28;20033;-90
2022/06/19 01:05:55;;;;;;;;;;;23.60;76.60;;;;;;4994797;28;20045;-90
2022/06/19 01:08:21;;;;;;;3.95;1.10;;;23.60;76.90;;;;;;5008916;28;19935;-90
2022/06/19 01:10:52;;;;;;;5.13;1.70;;;23.60;76.00;;;;;;5010509;28;20025;-91
2022/06/19 01:13:23;;;;;;;3.53;1.25;;;23.60;75.70;;;;;;4989343;28;20033;-91
2022/06/19 01:15:50;;;;;;;4.00;2.05;;;23.50;75.80;;;;;;4994585;28;20037;-90
2022/06/19 01:18:17;;;;;;;3.85;1.20;;;23.50;75.90;;;;;;4993829;28;20026;-90
2022/06/19 01:20:43;;;;;;;2.92;1.02;;;23.50;76.40;;;;;;4994447;28;20042;-90
2022/06/19 01:23:49;;;;;;;2.80;0.85;;;23.50;75.30;;;;;;4993342;28;20076;-91
2022/06/19 01:26:19;;;;;;;5.28;1.02;;;23.40;75.30;;;;;;5008646;28;20026;-89
2022/06/19 01:28:45;;;;;;;6.72;1.00;;;23.40;74.60;;;;;;5011237;28;20051;-88
2022/06/19 01:31:16;;;;;;;4.22;0.90;;;23.40;75.00;;;;;;5012022;28;20501;-88
2022/06/19 01:33:56;;;;;;;3.90;0.65;;;23.40;75.60;;;;;;4990704;28;20371;-87
2022/06/19 01:36:25;;;;;;;4.32;0.73;;;23.40;76.20;;;;;;4992213;28;20053;-88
2022/06/19 01:38:52;;;;;;;5.38;0.75;;;23.40;75.90;;;;;;4992526;28;20022;-90
2022/06/19 01:41:33;;;;;;;3.15;0.88;;;23.30;75.20;;;;;;4992740;28;20037;-90
2022/06/19 01:44:02;;;;;;;2.65;0.80;;;23.30;75.20;;;;;;4987167;28;20032;-90
2022/06/19 01:46:30;;;;;;;5.25;1.17;;;23.30;75.90;;;;;;4993418;28;20060;-91
2022/06/19 01:48:56;;;;;;;4.57;0.82;;;23.30;76.10;;;;;;5010720;28;20548;-90
2022/06/19 01:51:25;;;;;;;2.20;0.88;;;23.30;75.80;;;;;;4992333;28;20133;-91
2022/06/19 01:54:01;;;;;;;4.97;1.55;;;23.20;76.00;;;;;;4985613;28;20033;-87
2022/06/19 01:56:28;;;;;;;3.35;0.60;;;23.20;76.10;;;;;;4991889;28;20075;-90
2022/06/19 01:58:57;;;;;;;3.70;0.80;;;23.20;76.20;;;;;;4993130;28;20021;-90
2022/06/19 02:01:23;;;;;;;3.00;0.85;;;23.20;76.30;;;;;;5010712;28;20049;-90
2022/06/19 02:03:54;;;;;;;5.90;1.10;;;23.20;76.30;;;;;;5007894;28;20053;-90
2022/06/19 02:06:36;;;;;;;3.50;0.80;;;23.10;76.80;;;;;;5009422;28;20028;-90
2022/06/19 02:09:03;;;;;;;1.80;0.73;;;23.10;76.70;;;;;;4991611;28;20061;-91
2022/06/19 02:11:31;;;;;;;2.13;0.50;;;23.10;77.20;;;;;;4989842;28;20037;-90
2022/06/19 02:14:01;;;;;;;4.65;0.90;;;23.00;76.70;;;;;;4992871;28;20060;-91
2022/06/19 02:16:26;;;;;;;2.88;0.70;;;23.00;77.00;;;;;;4993214;28;20029;-91
2022/06/19 02:18:53;;;;;;;2.72;0.80;;;23.00;76.80;;;;;;4991880;28;20029;-91
2022/06/19 02:21:33;;;;;;;2.58;0.45;;;23.00;77.30;;;;;;4992785;28;20052;-91
2022/06/19 02:23:59;;;;;;;1.92;0.60;;;22.90;77.20;;;;;;4992210;28;20513;-90
2022/06/19 02:26:25;;;;;;;2.40;0.70;;;22.90;77.80;;;;;;4992254;28;20049;-90
2022/06/19 02:28:51;;;;;;;4.38;0.90;;;22.80;77.10;;;;;;4991964;28;20072;-89
2022/06/19 02:31:20;;;;;;;3.00;0.70;;;22.80;76.90;;;;;;4992496;28;20037;-91
2022/06/19 02:33:55;;;;;;;3.95;0.85;;;22.70;77.80;;;;;;4991470;28;20026;-89
2022/06/19 02:36:51;;;;;;;3.03;0.80;;;22.70;77.80;;;;;;4990479;28;20045;-90
2022/06/19 02:39:28;;;;;;;2.63;0.70;;;22.50;78.10;;;;;;5010038;28;20487;-90
2022/06/19 02:42:05;;;;;;;2.92;0.70;;;22.50;77.60;;;;;;4991542;28;20073;-91
2022/06/19 02:44:40;;;;;;;1.67;0.57;;;22.40;78.10;;;;;;5010318;28;20034;-91
2022/06/19 02:47:06;;;;;;;3.58;0.88;;;22.40;78.00;;;;;;4991045;28;20018;-90
2022/06/19 02:49:32;;;;;;;2.63;0.85;;;22.30;78.50;;;;;;4991402;28;20121;-91
2022/06/19 02:51:58;;;;;;;3.33;1.02;;;22.30;78.20;;;;;;4993338;28;20117;-90
2022/06/19 02:54:24;;;;;;;4.40;1.10;;;22.30;78.50;;;;;;5000559;28;20021;-90
2022/06/19 02:56:53;;;;;;;2.63;0.82;;;22.30;78.60;;;;;;5009312;28;20026;-89
2022/06/19 02:59:19;;;;;;;4.97;1.23;;;22.30;78.00;;;;;;4991950;28;20294;-89
2022/06/19 03:01:46;;;;;;;2.13;0.75;;;22.30;78.90;;;;;;5007319;28;20465;-89
2022/06/19 03:04:23;;;;;;;4.97;1.00;;;22.30;79.00;;;;;;4992821;28;20002;-90
2022/06/19 03:06:49;;;;;;;4.22;0.75;;;22.40;79.10;;;;;;4990392;28;20065;-90
2022/06/19 03:09:15;;;;;;;4.40;0.77;;;22.40;79.10;;;;;;5010362;28;20517;-91
2022/06/19 03:11:44;;;;;;;4.53;0.77;;;22.30;79.20;;;;;;5008867;28;20030;-90
2022/06/19 03:14:12;;;;;;;2.00;0.65;;;22.30;79.70;;;;;;4991613;28;20061;-90
2022/06/19 03:16:38;;;;;;;4.43;1.00;;;22.30;79.50;;;;;;4989359;28;20154;-90
2022/06/19 03:19:07;;;;;;;3.47;0.98;;;22.30;79.00;;;;;;4986566;28;20058;-90
2022/06/19 03:21:33;;;;;;;2.72;0.60;;;22.30;79.40;;;;;;4989919;28;20034;-91
2022/06/19 03:23:58;;;;;;;5.13;0.80;;;22.30;79.70;;;;;;4987500;28;20030;-90
2022/06/19 03:26:26;;;;;;;2.40;0.85;;;22.30;79.90;;;;;;4991894;28;20574;-91
2022/06/19 03:28:54;;;;;;;2.63;0.93;;;22.30;79.70;;;;;;4990996;28;20025;-90
2022/06/19 03:31:26;;;;;;;3.42;1.20;;;22.30;79.80;;;;;;5006756;28;20611;-90
2022/06/19 03:33:51;;;;;;;;;;;22.30;79.20;;;;;;5009586;28;20490;-90
2022/06/19 03:36:18;;;;;;;3.05;0.75;;;22.20;79.40;;;;;;5008549;28;19910;-90
2022/06/19 03:38:45;;;;;;;2.90;0.85;;;22.20;80.20;;;;;;5007359;28;20037;-89
2022/06/19 03:41:11;;;;;;;2.25;0.90;;;22.20;80.10;;;;;;4996177;28;20507;-90
2022/06/19 03:43:37;;;;;;;2.90;0.70;;;22.20;80.60;;;;;;4993305;28;20038;-90
2022/06/19 03:46:07;;;;;;;2.97;0.90;;;22.20;80.30;;;;;;4992555;28;20048;-90
2022/06/19 03:48:33;;;;;;;3.55;1.20;;;22.20;79.70;;;;;;4993121;28;20042;-91
2022/06/19 03:50:59;;;;;;;3.45;0.65;;;22.20;80.50;;;;;;4993167;28;20837;-90
2022/06/19 03:53:24;;;;;;;4.55;1.42;;;22.20;79.60;;;;;;4986756;28;20034;-90
2022/06/19 03:55:50;;;;;;;6.22;1.23;;;22.20;80.60;;;;;;4995746;28;20505;-87
2022/06/19 03:58:16;;;;;;;7.47;1.67;;;22.10;80.00;;;;;;5012313;28;20080;-87
2022/06/19 04:00:44;;;;;;;2.67;0.70;;;22.10;80.10;;;;;;4996332;28;20022;-87
2022/06/19 04:03:10;;;;;;;3.47;0.90;;;22.10;80.20;;;;;;5011367;28;20020;-87
2022/06/19 04:05:36;;;;;;;2.95;0.65;;;22.10;80.20;;;;;;4994059;28;20116;-88
2022/06/19 04:08:03;;;;;;;3.53;0.80;;;22.00;80.50;;;;;;5013091;28;20026;-88
2022/06/19 04:10:29;;;;;;;4.13;1.60;;;22.00;80.70;;;;;;5013493;28;20022;-88
2022/06/19 04:12:58;;;;;;;4.43;0.98;;;22.00;80.70;;;;;;5014026;28;20497;-88
2022/06/19 04:15:24;;;;;;;3.95;1.40;;;22.10;81.40;;;;;;5014188;28;20118;-87
2022/06/19 04:17:50;;;;;;;3.33;0.70;;;22.10;81.20;;;;;;5014929;28;20053;-88
2022/06/19 04:20:15;;;;;;;3.75;1.10;;;22.10;81.20;;;;;;5011504;28;20119;-87
2022/06/19 04:22:41;;;;;;;3.65;0.93;;;22.10;80.90;;;;;;4994264;28;20032;-87
2022/06/19 04:25:13;;;;;;;2.10;0.80;;;22.10;81.00;;;;;;5011256;28;20177;-87
2022/06/19 04:27:42;;;;;;;3.92;1.08;;;22.20;81.70;;;;;;4995247;28;20034;-89
2022/06/19 04:30:08;;;;;;;6.05;0.80;;;22.20;82.10;;;;;;5010887;28;20038;-87
2022/06/19 04:32:34;;;;;;;1.55;0.68;;;22.30;82.30;;;;;;4993293;28;20034;-87
2022/06/19 04:34:59;;;;;;;5.07;0.85;;;22.40;82.00;;;;;;5011946;28;20379;-88
2022/06/19 04:37:25;;;;;;;5.47;1.45;;;22.50;82.40;;;;;;5010581;28;20022;-87
2022/06/19 04:39:51;;;;;;;2.63;0.85;;;22.50;82.20;;;;;;5013189;28;20029;-87
2022/06/19 04:42:19;;;;;;;3.65;0.80;;;22.50;82.30;;;;;;5012071;28;20065;-87
2022/06/19 04:44:44;;;;;;;4.10;0.98;;;22.60;81.50;;;;;;4994505;28;20504;-88
2022/06/19 04:47:12;;;;;;;5.25;1.00;;;22.60;81.50;;;;;;4992711;28;20038;-88
2022/06/19 04:49:38;;;;;;;1.85;1.08;;;22.60;81.50;;;;;;4993427;28;20034;-88
2022/06/19 04:52:04;;;;;;;5.47;0.90;;;22.70;81.30;;;;;;4994381;28;20115;-87
2022/06/19 04:54:30;;;;;;;3.58;1.10;;;22.70;81.90;;;;;;4984004;28;20056;-87
2022/06/19 04:56:58;;;;;;;2.22;0.75;;;22.80;81.50;;;;;;5009892;28;20053;-88
2022/06/19 04:59:24;;;;;;;6.00;0.80;;;22.80;81.00;;;;;;4995280;28;20025;-87
2022/06/19 05:01:49;;;;;;;4.97;0.85;;;22.90;81.10;;;;;;4994216;28;20026;-89
2022/06/19 05:04:15;;;;;;;3.47;1.15;;;22.90;81.10;;;;;;5011059;28;20021;-88
2022/06/19 05:06:42;;;;;;;3.20;0.80;;;23.00;80.60;;;;;;4993826;28;20026;-88
2022/06/19 05:09:08;;;;;;;2.13;0.73;;;23.00;80.80;;;;;;5005111;28;20034;-88
2022/06/19 05:11:34;;;;;;;5.13;0.98;;;23.10;80.80;;;;;;4993272;28;20033;-86
2022/06/19 05:14:01;;;;;;;3.47;0.80;;;23.10;80.40;;;;;;4992456;28;20516;-89
2022/06/19 05:16:27;;;;;;;4.47;0.80;;;23.10;80.20;;;;;;4991950;28;20034;-89
2022/06/19 05:18:55;;;;;;;2.83;1.13;;;23.20;80.50;;;;;;5009689;28;20034;-88
2022/06/19 05:21:25;;;;;;;5.20;1.45;;;23.30;80.10;;;;;;4992910;28;20026;-88
2022/06/19 05:23:52;;;;;;;3.70;1.03;;;23.30;79.90;;;;;;4992706;28;20081;-89
2022/06/19 05:26:25;;;;;;;2.22;1.00;;;23.40;79.90;;;;;;5010620;28;20265;-88
2022/06/19 05:28:54;;;;;;;5.22;1.20;;;23.50;80.50;;;;;;4992584;28;20120;-89
2022/06/19 05:31:22;;;;;;;2.58;0.70;;;23.60;79.90;;;;;;4993569;28;20030;-88
2022/06/19 05:33:51;;;;;;;3.88;1.00;;;23.70;79.90;;;;;;4992996;28;20096;-88
2022/06/19 05:36:20;;;;;;;4.50;0.80;;;23.70;79.60;;;;;;4991576;28;20112;-90
2022/06/19 05:38:50;;;;;;;4.65;0.98;;;23.80;79.50;;;;;;4991139;28;20450;-91
2022/06/19 05:41:18;;;;;;;7.57;1.98;;;23.90;79.00;;;;;;5009291;28;20475;-91
2022/06/19 05:43:50;;;;;;;3.35;1.15;;;24.10;79.60;;;;;;5011205;28;20076;-91
2022/06/19 05:46:20;;;;;;;4.85;0.98;;;24.10;79.10;;;;;;4992162;28;20368;-91
2022/06/19 05:48:46;;;;;;;4.78;0.82;;;24.20;79.20;;;;;;5012029;28;20034;-91
2022/06/19 05:51:16;;;;;;;5.85;1.70;;;24.30;78.80;;;;;;4990745;28;20034;-91
2022/06/19 05:53:49;;;;;;;4.53;0.68;;;24.30;79.10;;;;;;4985956;28;20033;-91
2022/06/19 05:56:15;;;;;;;5.18;1.15;;;24.50;78.80;;;;;;4993063;28;20036;-91
2022/06/19 05:58:41;;;;;;;3.60;0.68;;;24.50;78.80;;;;;;4992589;28;20021;-91
2022/06/19 06:01:08;;;;;;;4.60;1.05;;;24.60;78.00;;;;;;4990850;28;20033;-91
2022/06/19 06:03:45;;;;;;;6.05;1.13;;;24.70;78.00;;;;;;4991479;28;20116;-89
2022/06/19 06:06:15;;;;;;;2.20;0.60;;;24.70;78.50;;;;;;4993132;28;20026;-92
2022/06/19 06:08:45;;;;;;;5.47;1.00;;;24.90;78.80;;;;;;5006288;28;20362;-91
2022/06/19 06:11:11;;;;;;;3.35;1.27;;;25.00;79.00;;;;;;4991957;28;20041;-91
2022/06/19 06:13:49;;;;;;;6.85;1.30;;;25.10;79.50;;;;;;4992742;28;20101;-90
2022/06/19 06:16:22;;;;;;;3.00;0.88;;;25.10;79.40;;;;;;4992097;28;20521;-91
2022/06/19 06:18:51;;;;;;;3.35;1.38;;;25.20;79.60;;;;;;4990378;28;20470;-91
2022/06/19 06:21:28;;;;;;;3.28;0.70;;;25.20;79.90;;;;;;5001201;28;20041;-92
2022/06/19 06:24:01;;;;;;;4.75;0.93;;;25.20;80.60;;;;;;5021783;28;20068;-89
2022/06/19 06:26:33;;;;;;;3.63;1.10;;;25.30;80.20;;;;;;5000061;28;20033;-90
2022/06/19 06:29:04;;;;;;;4.15;0.68;;;25.30;80.60;;;;;;4994121;28;20056;-90
2022/06/19 06:31:34;;;;;;;1.90;0.98;;;25.30;80.40;;;;;;5010752;28;20040;-91
2022/06/19 06:34:12;;;;;;;7.40;1.02;;;25.30;80.90;;;;;;5008974;28;20261;-92
2022/06/19 06:36:38;;;;;;;3.38;1.00;;;25.40;81.20;;;;;;4990467;28;20237;-90
2022/06/19 06:39:11;;;;;;;4.85;1.20;;;25.40;81.60;;;;;;4992854;28;20044;-91
2022/06/19 06:41:43;;;;;;;2.92;0.88;;;25.50;82.20;;;;;;4995090;28;20049;-90
2022/06/19 06:44:25;;;;;;;4.10;0.90;;;25.40;82.30;;;;;;4994793;28;20030;-91
2022/06/19 06:47:02;;;;;;;;;;;25.50;82.70;;;;;;5002542;28;20018;-91
2022/06/19 06:49:39;;;;;;;2.88;0.85;;;25.70;82.90;;;;;;5010597;28;19909;-91
2022/06/19 06:52:08;;;;;;;6.60;1.33;;;25.90;82.60;;;;;;5007719;28;20410;-91
2022/06/19 06:54:42;;;;;;;3.58;0.93;;;26.10;81.80;;;;;;5001140;28;20038;-91
2022/06/19 06:57:08;;;;;;;5.20;1.73;;;26.40;82.60;;;;;;4991535;28;20026;-90
2022/06/19 06:59:59;;;;;;;4.28;1.40;;;26.50;82.60;;;;;;4993374;28;20030;-92
2022/06/19 07:03:01;;;;;;;4.75;1.38;;;26.90;82.50;;;;;;5013145;28;20034;-92
2022/06/19 07:05:35;;;;;;;5.25;1.40;;;27.10;81.10;;;;;;4895941;29;20405;-92
2022/06/19 07:08:08;;;;;;;5.95;1.60;;;26.90;81.60;;;;;;4988634;28;20165;-92
2022/06/19 07:10:39;;;;;;;6.97;1.98;;;26.70;82.30;;;;;;4990434;28;20026;-92
2022/06/19 07:13:18;;;;;;;8.05;2.50;;;26.50;82.60;;;;;;4991439;28;20033;-92
2022/06/19 07:15:44;;;;;;;7.22;2.47;;;26.30;83.40;;;;;;4995945;28;20030;-91
2022/06/19 07:18:16;;;;;;;10.43;2.80;;;26.10;83.50;;;;;;4996638;28;20029;-92
2022/06/19 07:21:10;;;;;;;7.75;1.63;;;26.00;83.90;;;;;;4994541;28;20682;-91
2022/06/19 07:23:42;;;;;;;4.55;1.52;;;26.10;84.00;;;;;;4995729;28;20034;-91
2022/06/19 07:26:20;;;;;;;3.55;1.40;;;26.30;84.20;;;;;;4995874;28;20421;-92
2022/06/19 07:28:51;;;;;;;4.45;1.48;;;26.70;84.10;;;;;;4996240;28;20309;-91
2022/06/19 07:31:58;;;;;;;5.95;1.10;;;26.90;83.70;;;;;;4996781;28;20034;-90
2022/06/19 07:35:20;;;;;;;;;;;;;;;;;;;;;
2022/06/19 07:38:20;;;;;;;5.57;1.60;;;27.60;80.60;;;;;;5015990;28;20029;-92
2022/06/19 07:41:08;;;;;;;5.47;1.25;;;28.00;79.40;;;;;;4995191;28;20037;-91
2022/06/19 07:43:51;;;;;;;4.45;0.80;;;28.10;77.90;;;;;;4993984;28;20582;-92
2022/06/19 07:46:30;;;;;;;3.47;1.48;;;28.30;77.80;;;;;;4994290;28;20041;-89
2022/06/19 07:51:46;;;;;;;4.00;1.35;;;28.60;77.70;;;;;;5014568;28;20644;-89
2022/06/19 07:54:12;;;;;;;5.43;1.20;;;28.80;78.30;;;;;;5004263;28;20075;-88
2022/06/19 07:56:38;;;;;;;4.07;1.27;;;28.90;77.50;;;;;;4997149;28;20045;-90
2022/06/19 07:59:06;;;;;;;4.03;1.60;;;29.10;76.90;;;;;;4996378;28;20068;-89
2022/06/19 08:02:01;;;;;;;4.25;1.30;;;29.10;77.50;;;;;;5011339;28;20401;-91
2022/06/19 08:52:06;;;;;;;5.72;2.22;;;31.60;69.40;;;;;;5012043;28;20039;-89
2022/06/19 08:58:26;;;;;;;5.53;2.33;;;31.80;67.20;;;;;;4978952;28;20026;-89
2022/06/19 09:15:00;;;;;;;4.80;2.78;;;32.80;65.10;;;;;;4993447;28;20030;-88
2022/06/19 09:21:41;;;;;;;;;;;;;;;;;;;;;
2022/06/19 09:34:27;;;;;;;7.25;2.30;;;33.80;58.60;;;;;;5093811;22;20475;-88
2022/06/19 12:21:18;;;;;;;3.22;1.58;;;39.40;47.50;;;;;;4997344;28;20050;-90
2022/06/19 13:05:39;;;;;;;5.85;1.42;;;39.20;46.80;;;;;;5826441;22;20396;-91
2022/06/19 13:08:28;;;;;;;3.63;1.20;;;39.20;46.30;;;;;;4999203;28;20026;-89
2022/06/19 13:11:12;;;;;;;6.22;1.70;;;39.40;45.50;;;;;;4998704;28;20634;-90
2022/06/19 13:13:56;;;;;;;4.50;1.40;;;39.10;45.30;;;;;;4998024;28;20029;-89
2022/06/19 13:16:37;;;;;;;3.78;1.73;;;39.50;46.50;;;;;;4999558;28;20045;-90
2022/06/19 13:19:17;;;;;;;3.13;1.40;;;39.20;46.00;;;;;;4988166;28;20029;-90
2022/06/19 13:21:49;;;;;;;5.00;1.42;;;39.40;45.60;;;;;;4998783;28;20029;-91
2022/06/19 13:24:36;;;;;;;3.63;1.20;;;39.70;45.60;;;;;;4998972;28;20042;-91
2022/06/19 13:27:17;;;;;;;6.25;1.80;;;39.40;45.50;;;;;;4994396;28;20165;-90
2022/06/19 13:29:52;;;;;;;3.55;1.65;;;39.20;46.00;;;;;;5020778;28;20105;-90
2022/06/19 13:32:44;;;;;;;3.22;1.48;;;39.30;45.30;;;;;;5006025;28;20060;-90
2022/06/19 13:35:35;;;;;;;3.70;1.67;;;39.70;45.20;;;;;;5017031;28;20018;-90
2022/06/19 13:38:01;;;;;;;3.30;1.50;;;40.00;44.90;;;;;;5003847;28;20560;-90
2022/06/19 13:40:37;;;;;;;6.18;1.77;;;39.90;45.10;;;;;;5023771;28;20026;-90
2022/06/19 13:43:25;;;;;;;3.47;1.08;;;39.90;45.40;;;;;;5020532;28;20014;-89
2022/06/19 13:46:13;;;;;;;4.07;1.30;;;39.80;45.80;;;;;;5022642;28;20018;-90
2022/06/19 13:49:03;;;;;;;2.80;1.40;;;39.70;45.30;;;;;;5013082;28;20046;-90
2022/06/19 13:51:40;;;;;;;4.90;1.67;;;39.80;45.60;;;;;;5014500;28;20057;-90
2022/06/19 13:54:31;;;;;;;3.50;1.35;;;39.90;45.60;;;;;;5013574;28;20032;-88
2022/06/19 13:57:12;;;;;;;3.58;1.40;;;40.70;45.20;;;;;;5033126;28;20014;-89
2022/06/19 14:00:15;;;;;;;5.07;1.50;;;40.60;46.20;;;;;;5012711;28;20026;-89
2022/06/19 14:03:19;;;;;;;4.95;1.35;;;40.80;45.90;;;;;;5015674;28;20030;-89
2022/06/19 14:05:51;;;;;;;4.03;1.90;;;40.60;46.30;;;;;;5009233;28;20038;-89
2022/06/19 14:08:25;;;;;;;2.80;1.20;;;40.20;45.20;;;;;;5025697;28;20021;-90
2022/06/19 14:11:09;;;;;;;3.25;1.38;;;40.90;46.10;;;;;;5006554;28;20034;-90
2022/06/19 14:14:04;;;;;;;5.55;1.67;;;40.90;45.50;;;;;;5016956;28;20101;-89
2022/06/19 14:16:49;;;;;;;1.98;1.10;;;41.10;44.70;;;;;;4995707;28;20140;-89
2022/06/19 14:19:22;;;;;;;2.40;1.27;;;41.20;44.50;;;;;;4996248;28;20048;-91
2022/06/19 14:22:15;;;;;;;2.65;1.45;;;40.30;44.60;;;;;;5020349;28;20033;-90
2022/06/19 14:25:24;;;;;;;4.28;1.38;;;39.90;44.30;;;;;;4995755;28;20025;-90
2022/06/19 14:27:53;;;;;;;4.13;1.30;;;39.20;45.40;;;;;;4988794;28;20038;-90
2022/06/19 14:30:22;;;;;;;4.43;1.27;;;39.20;46.10;;;;;;4997642;28;20038;-90
2022/06/19 14:32:56;;;;;;;3.78;1.33;;;39.30;45.50;;;;;;5020397;28;20061;-91
2022/06/19 14:35:34;;;;;;;2.40;0.95;;;39.30;45.40;;;;;;5003332;28;20036;-90
2022/06/19 14:38:00;;;;;;;2.08;1.10;;;39.30;45.90;;;;;;4999535;28;20022;-91
2022/06/19 14:40:31;;;;;;;5.50;1.58;;;39.70;45.60;;;;;;5018700;28;20084;-90
2022/06/19 14:43:01;;;;;;;2.83;1.30;;;40.20;45.70;;;;;;4996924;28;20045;-90
2022/06/19 14:46:07;;;;;;;4.25;1.73;;;39.90;44.80;;;;;;5016485;28;20056;-90
2022/06/19 14:48:48;;;;;;;4.28;1.45;;;39.30;45.30;;;;;;5010059;28;20095;-90
2022/06/19 14:51:20;;;;;;;3.72;1.30;;;39.50;46.70;;;;;;5012829;28;20378;-90
2022/06/19 14:54:23;;;;;;;5.63;1.88;;;40.00;46.00;;;;;;5013560;28;20029;-90
2022/06/19 14:57:11;;;;;;;6.13;1.55;;;39.80;45.90;;;;;;4993728;28;20033;-89
2022/06/19 14:59:55;;;;;;;3.00;1.15;;;39.80;45.40;;;;;;4993836;28;20716;-91
2022/06/19 15:02:25;;;;;;;3.55;1.45;;;39.60;45.40;;;;;;5011534;28;20026;-91
2022/06/19 15:05:05;;;;;;;4.68;1.30;;;39.00;46.00;;;;;;5014527;28;20080;-88
2022/06/19 15:07:31;;;;;;;3.58;1.20;;;38.60;46.30;;;;;;5013965;28;20018;-91
2022/06/19 15:10:08;;;;;;;8.05;1.45;;;38.90;47.50;;;;;;5008107;28;20026;-89
2022/06/19 15:12:34;;;;;;;3.05;1.55;;;38.70;45.80;;;;;;4996924;28;20030;-89
2022/06/19 15:15:15;;;;;;;4.40;1.63;;;38.90;46.40;;;;;;5000549;28;20077;-89
2022/06/19 15:17:45;;;;;;;2.70;1.15;;;38.80;46.70;;;;;;5012278;28;20728;-90
2022/06/19 15:20:30;;;;;;;4.15;1.70;;;39.60;46.30;;;;;;4997097;28;20018;-90
2022/06/19 15:23:18;;;;;;;3.42;1.55;;;39.70;45.70;;;;;;4997389;28;20241;-90
2022/06/19 15:25:47;;;;;;;3.88;1.40;;;39.90;46.20;;;;;;4997503;28;20045;-90
2022/06/19 15:28:39;;;;;;;3.97;1.95;;;39.90;46.00;;;;;;4991694;28;20025;-91
2022/06/19 15:31:23;;;;;;;3.53;1.40;;;39.80;45.50;;;;;;4988529;28;20053;-90
2022/06/19 15:55:14;;;;;;;3.75;1.35;;;39.70;44.40;;;;;;4962840;29;20062;-93
2022/06/19 16:56:36;;;;;;;3.22;1.02;;;36.20;49.40;;;;;;5013120;28;20042;-89
2022/06/19 16:59:07;;;;;;;4.05;1.42;;;36.20;49.90;;;;;;5000598;28;20037;-89
2022/06/19 17:01:38;;;;;;;3.10;1.17;;;36.20;48.70;;;;;;5003256;28;20026;-89
2022/06/19 17:04:13;;;;;;;4.30;1.25;;;36.20;48.90;;;;;;4986416;28;20042;-89
2022/06/19 17:06:46;;;;;;;4.20;1.20;;;36.10;48.90;;;;;;5009116;28;20032;-89
2022/06/19 17:09:36;;;;;;;2.80;0.98;;;36.00;47.70;;;;;;4994580;28;20045;-89
2022/06/19 17:12:18;;;;;;;4.20;1.50;;;36.10;47.60;;;;;;4987263;28;20042;-90
2022/06/19 17:14:55;;;;;;;4.22;1.27;;;36.10;47.70;;;;;;4989695;28;20049;-88
2022/06/19 17:17:40;;;;;;;4.55;1.08;;;36.00;46.90;;;;;;4995336;28;20032;-89
2022/06/19 17:20:08;;;;;;;4.57;1.40;;;35.90;47.90;;;;;;5000903;28;20036;-88
2022/06/19 17:22:38;;;;;;;6.15;1.42;;;35.80;47.00;;;;;;4987102;28;20026;-89
2022/06/19 17:25:30;;;;;;;8.38;1.20;;;35.60;46.50;;;;;;4993168;28;20026;-89
2022/06/19 17:28:10;;;;;;;4.00;0.95;;;35.60;46.40;;;;;;5006702;28;20025;-90
2022/06/19 17:30:46;;;;;;;3.20;1.48;;;35.60;47.00;;;;;;4998992;28;20033;-88
2022/06/19 17:33:39;;;;;;;3.95;1.27;;;35.50;47.30;;;;;;5008854;28;20018;-89
2022/06/19 17:36:37;;;;;;;3.70;1.85;;;35.50;49.20;;;;;;4993016;28;20054;-88
2022/06/19 17:39:18;;;;;;;6.50;1.80;;;35.50;48.40;;;;;;4976837;28;20077;-89
2022/06/19 17:41:47;;;;;;;3.15;1.52;;;35.30;50.50;;;;;;4991737;28;20515;-91
2022/06/19 17:44:40;;;;;;;4.40;1.63;;;35.20;51.10;;;;;;4984534;28;20033;-91
2022/06/19 17:47:08;;;;;;;2.63;1.42;;;35.00;51.60;;;;;;4998894;28;20040;-90
2022/06/19 17:49:42;;;;;;;5.32;1.95;;;34.90;51.60;;;;;;4975774;28;20187;-91
2022/06/19 17:52:30;;;;;;;4.50;1.63;;;34.80;52.00;;;;;;4966876;28;20044;-90
2022/06/19 17:55:01;;;;;;;4.07;1.92;;;34.70;52.50;;;;;;4990207;28;20040;-91
2022/06/19 17:57:38;;;;;;;3.63;1.30;;;34.60;52.60;;;;;;5012261;28;20027;-91
2022/06/19 18:00:18;;;;;;;4.63;1.75;;;34.60;52.30;;;;;;4985722;28;20034;-90
2022/06/19 18:02:55;;;;;;;3.72;1.58;;;34.50;52.70;;;;;;4994839;28;20022;-90
2022/06/19 18:05:46;;;;;;;2.33;1.25;;;34.30;53.10;;;;;;4999034;28;20043;-88
2022/06/19 18:08:28;;;;;;;3.03;1.40;;;34.20;53.20;;;;;;4964516;28;20022;-90
2022/06/19 18:11:16;;;;;;;2.95;1.50;;;34.00;53.90;;;;;;4969302;28;20030;-90
2022/06/19 18:13:45;;;;;;;2.78;1.58;;;33.90;54.30;;;;;;4968327;28;20054;-91
2022/06/19 18:19:11;;;;;;;4.00;1.60;;;33.70;54.40;;;;;;4990070;28;20041;-91
2022/06/19 18:21:46;;;;;;;4.05;1.45;;;33.70;54.70;;;;;;4971543;28;20121;-90
2022/06/19 18:24:33;;;;;;;7.47;1.85;;;33.50;55.60;;;;;;4972780;28;20014;-91
2022/06/19 18:27:32;;;;;;;4.60;1.77;;;33.40;55.10;;;;;;4988203;28;20040;-90
2022/06/19 18:30:12;;;;;;;4.60;1.70;;;33.30;55.00;;;;;;4974165;28;20120;-90
2022/06/19 18:33:00;;;;;;;7.30;2.03;;;33.30;54.60;;;;;;4973890;28;20033;-91
2022/06/19 18:35:30;;;;;;;3.63;1.58;;;33.20;54.80;;;;;;4973375;28;20030;-91
2022/06/19 18:37:56;;;;;;;;;;;33.10;54.80;;;;;;4984036;28;20018;-91
2022/06/19 18:40:30;;;;;;;3.22;1.35;;;33.00;54.60;;;;;;4971253;28;20366;-91
2022/06/19 18:43:07;;;;;;;5.85;2.00;;;32.90;54.60;;;;;;4976181;28;20149;-92
2022/06/19 18:45:37;;;;;;;2.47;1.38;;;32.80;54.70;;;;;;4977970;28;20041;-91
2022/06/19 18:48:04;;;;;;;3.65;1.70;;;32.70;54.70;;;;;;4969170;28;20022;-92
2022/06/19 18:50:51;;;;;;;3.30;1.45;;;32.60;54.30;;;;;;4975837;28;20034;-91
2022/06/19 18:53:42;;;;;;;;;;;;;;;;;;;;;
2022/06/19 18:56:20;;;;;;;5.60;1.70;;;32.40;54.80;;;;;;4985257;28;20030;-91
2022/06/19 18:58:54;;;;;;;3.83;1.40;;;32.30;55.00;;;;;;4964221;28;20042;-91
2022/06/19 19:01:23;;;;;;;4.93;1.40;;;32.30;54.90;;;;;;4959281;28;20027;-91
2022/06/19 19:03:49;;;;;;;5.55;1.52;;;32.20;55.00;;;;;;4962782;28;20435;-91
2022/06/19 19:06:20;;;;;;;3.78;2.10;;;32.10;55.00;;;;;;4969020;28;20027;-92
2022/06/19 19:08:52;;;;;;;2.08;1.30;;;32.00;55.00;;;;;;4969728;28;20027;-92
2022/06/19 19:11:19;;;;;;;3.58;1.50;;;31.90;55.20;;;;;;4987275;28;20038;-91
2022/06/19 19:13:48;;;;;;;5.80;1.83;;;31.80;55.60;;;;;;4971804;28;20066;-90
2022/06/19 19:16:22;;;;;;;3.97;1.50;;;31.70;56.40;;;;;;4983668;28;20022;-91
2022/06/19 19:18:54;;;;;;;4.50;1.30;;;31.60;56.70;;;;;;4963495;28;20041;-92
2022/06/19 19:21:29;;;;;;;3.20;1.38;;;31.50;56.70;;;;;;4995947;28;20022;-91
2022/06/19 19:23:59;;;;;;;4.75;1.98;;;31.40;56.60;;;;;;4968361;28;20395;-91
2022/06/19 19:26:44;;;;;;;3.45;1.48;;;31.40;57.10;;;;;;4985258;28;20058;-91
2022/06/19 19:29:31;;;;;;;3.45;1.70;;;31.30;57.70;;;;;;4993766;28;20502;-92
2022/06/19 19:32:05;;;;;;;4.88;1.63;;;31.20;58.20;;;;;;4990489;28;20037;-91
2022/06/19 19:34:41;;;;;;;3.95;1.70;;;31.10;58.20;;;;;;4982869;28;20030;-91
2022/06/19 19:37:11;;;;;;;3.38;1.60;;;31.00;58.40;;;;;;4988084;28;20030;-91
2022/06/19 19:39:43;;;;;;;5.28;1.70;;;30.90;58.60;;;;;;4997127;28;20054;-92
2022/06/19 19:42:22;;;;;;;3.45;1.75;;;30.80;59.10;;;;;;4981634;28;20042;-91
2022/06/19 19:44:59;;;;;;;5.32;2.17;;;30.70;59.10;;;;;;4980741;28;20042;-91
2022/06/19 19:47:33;;;;;;;3.20;1.60;;;30.60;59.40;;;;;;4981124;28;20065;-90
2022/06/19 19:49:59;;;;;;;3.17;1.80;;;30.60;60.10;;;;;;4978588;28;20026;-92
2022/06/19 19:52:28;;;;;;;4.30;1.70;;;30.50;60.70;;;;;;4991448;28;20031;-91
2022/06/19 19:54:54;;;;;;;4.25;2.10;;;30.40;61.20;;;;;;4973002;28;20046;-91
2022/06/19 19:57:32;;;;;;;2.72;1.48;;;30.30;61.40;;;;;;4989347;28;20045;-91